createdAt,value
2023-05-12T00:02:06.260Z,100400.75
2023-05-12T00:05:09.539Z,100385.63
2023-05-12T00:08:12.334Z,100388.22
2023-05-12T00:11:15.455Z,100375.66
2023-05-12T00:14:18.259Z,100382.84
2023-05-12T00:17:21.205Z,100380.34
2023-05-12T00:20:23.861Z,100377.53
2023-05-12T00:23:26.758Z,100381.72
2023-05-12T00:26:29.507Z,100381.19
2023-05-12T00:29:33.883Z,100382.78
2023-05-12T00:32:36.526Z,100388.41
2023-05-12T00:35:39.569Z,100392.78
2023-05-12T00:38:42.372Z,100361.53
2023-05-12T00:41:45.448Z,100379.97
2023-05-12T00:44:48.090Z,100383.63
2023-05-12T00:47:53.507Z,100386.78
2023-05-12T00:50:57.750Z,100377.06
2023-05-12T00:54:00.690Z,100381.12
2023-05-12T00:57:03.518Z,100383.94
2023-05-12T01:00:07.560Z,100392.28
2023-05-12T01:03:10.814Z,100392.28
2023-05-12T01:06:29.945Z,100387.41
2023-05-12T01:09:33.025Z,100394.25
2023-05-12T01:12:36.546Z,100393.69
2023-05-12T01:15:43.059Z,100396.72
2023-05-12T01:18:50.898Z,100392.91
2023-05-12T01:21:53.829Z,100400.31
2023-05-12T01:24:59.707Z,100397.25
2023-05-12T01:28:03.665Z,100393.97
2023-05-12T01:31:08.933Z,100398.25
2023-05-12T01:34:18.505Z,100399.19
2023-05-12T01:37:25.198Z,100406.97
2023-05-12T01:40:28.136Z,100399.59
2023-05-12T01:43:31.379Z,100400.66
2023-05-12T01:46:34.048Z,100408.22
2023-05-12T01:49:37.883Z,100400.25
2023-05-12T01:52:41.457Z,100389.22
2023-05-12T01:55:44.666Z,100400.13
2023-05-12T01:58:47.903Z,100391.44
2023-05-12T02:01:50.960Z,100400.00
2023-05-12T02:04:54.549Z,100373.47
2023-05-12T02:07:57.474Z,100394.97
2023-05-12T02:11:09.871Z,100392.16
2023-05-12T02:14:13.475Z,100370.78
2023-05-12T02:17:17.329Z,100390.38
2023-05-12T02:20:20.692Z,100386.63
2023-05-12T02:23:24.003Z,100379.59
2023-05-12T02:26:26.635Z,100378.53
2023-05-12T02:29:29.982Z,100378.22
2023-05-12T02:32:33.060Z,100373.53
2023-05-12T02:35:36.027Z,100382.22
2023-05-12T02:38:40.352Z,100375.72
2023-05-12T02:41:43.673Z,100375.81
2023-05-12T02:44:46.332Z,100368.56
2023-05-12T02:47:49.349Z,100382.38
2023-05-12T02:50:52.113Z,100372.22
2023-05-12T02:53:55.047Z,100378.19
2023-05-12T02:56:58.297Z,100374.97
2023-05-12T03:00:01.999Z,100378.28
2023-05-12T03:03:06.845Z,100378.09
2023-05-12T03:06:10.238Z,100378.22
2023-05-12T03:09:13.534Z,100375.34
2023-05-12T03:12:16.780Z,100366.84
2023-05-12T03:15:19.589Z,100368.34
2023-05-12T03:18:22.653Z,100365.31
2023-05-12T03:21:25.994Z,100356.34
2023-05-12T03:24:29.599Z,100365.59
2023-05-12T03:27:36.161Z,100372.78
2023-05-12T03:30:39.328Z,100369.59
2023-05-12T03:33:42.022Z,100376.09
2023-05-12T03:36:45.803Z,100365.41
2023-05-12T03:39:48.673Z,100380.91
2023-05-12T03:42:51.641Z,100388.00
2023-05-12T03:45:54.340Z,100389.19
2023-05-12T03:48:58.750Z,100384.84
2023-05-12T03:52:01.669Z,100380.16
2023-05-12T03:55:07.017Z,100387.59
2023-05-12T03:58:09.981Z,100389.59
2023-05-12T04:01:13.266Z,100392.91
2023-05-12T04:04:16.344Z,100391.00
2023-05-12T04:07:19.057Z,100399.63
2023-05-12T04:10:23.111Z,100401.22
2023-05-12T04:13:26.908Z,100397.50
2023-05-12T04:16:29.815Z,100400.22
2023-05-12T04:19:34.308Z,100415.53
2023-05-12T04:22:37.337Z,100413.00
2023-05-12T04:25:40.507Z,100422.88
2023-05-12T04:28:43.661Z,100425.75
2023-05-12T04:31:46.546Z,100428.38
2023-05-12T04:34:50.486Z,100431.22
2023-05-12T04:37:53.704Z,100418.25
2023-05-12T04:41:01.202Z,100434.38
2023-05-12T04:44:04.192Z,100437.94
2023-05-12T04:47:07.262Z,100438.81
2023-05-12T04:50:10.881Z,100436.13
2023-05-12T04:53:15.823Z,100438.03
2023-05-12T04:56:18.572Z,100429.50
2023-05-12T04:59:21.766Z,100429.94
2023-05-12T05:02:26.084Z,100436.44
2023-05-12T05:05:29.246Z,100437.19
2023-05-12T05:08:32.264Z,100428.62
2023-05-12T05:11:35.299Z,100438.41
2023-05-12T05:14:39.143Z,100439.50
2023-05-12T05:17:43.324Z,100434.50
2023-05-12T05:20:54.432Z,100417.53
2023-05-12T05:24:00.676Z,100431.66
2023-05-12T05:27:04.355Z,100422.91
2023-05-12T05:30:09.194Z,100431.19
2023-05-12T05:33:13.340Z,100431.94
2023-05-12T05:36:16.730Z,100432.59
2023-05-12T05:39:19.496Z,100414.06
2023-05-12T05:42:22.356Z,100434.97
2023-05-12T05:45:25.988Z,100427.97
2023-05-12T05:48:31.274Z,100435.22
2023-05-12T05:51:34.223Z,100425.84
2023-05-12T05:54:37.193Z,100435.84
2023-05-12T05:57:39.990Z,100440.28
2023-05-12T06:00:43.705Z,100447.31
2023-05-12T06:03:46.711Z,100440.00
2023-05-12T06:06:49.556Z,100447.09
2023-05-12T06:09:55.710Z,100447.91
2023-05-12T06:12:58.385Z,100446.97
2023-05-12T06:16:01.324Z,100433.31
2023-05-12T06:19:03.996Z,100441.50
2023-05-12T06:22:07.019Z,100450.94
2023-05-12T06:25:10.199Z,100452.12
2023-05-12T06:28:13.923Z,100440.03
2023-05-12T06:31:17.057Z,100451.44
2023-05-12T06:34:20.013Z,100451.78
2023-05-12T06:37:22.606Z,100448.34
2023-05-12T06:40:25.704Z,100453.63
2023-05-12T06:43:29.131Z,100451.28
2023-05-12T06:46:32.905Z,100454.56
2023-05-12T06:49:37.262Z,100457.41
2023-05-12T06:52:40.195Z,100459.00
2023-05-12T06:55:44.254Z,100456.25
2023-05-12T06:58:48.130Z,100449.50
2023-05-12T07:01:50.923Z,100453.09
2023-05-12T07:04:53.852Z,100460.22
2023-05-12T07:07:56.534Z,100462.09
2023-05-12T07:11:02.442Z,100467.91
2023-05-12T07:14:05.018Z,100453.38
2023-05-12T07:17:09.841Z,100462.44
2023-05-12T07:20:12.926Z,100456.53
2023-05-12T07:23:16.978Z,100470.00
2023-05-12T07:26:19.734Z,100464.88
2023-05-12T07:29:22.673Z,100463.44
2023-05-12T07:32:25.598Z,100467.31
2023-05-12T07:35:28.648Z,100475.16
2023-05-12T07:38:31.739Z,100473.22
2023-05-12T07:41:34.771Z,100470.06
2023-05-12T07:44:37.408Z,100484.03
2023-05-12T07:47:40.410Z,100483.69
2023-05-12T07:50:43.111Z,100472.34
2023-05-12T07:53:46.138Z,100484.94
2023-05-12T07:56:48.742Z,100493.63
2023-05-12T07:59:52.073Z,100494.84
2023-05-12T08:02:55.179Z,100493.63
2023-05-12T08:05:58.572Z,100472.25
2023-05-12T08:09:01.389Z,100500.25
2023-05-12T08:12:04.528Z,100482.16
2023-05-12T08:15:08.396Z,100497.47
2023-05-12T08:18:11.390Z,100485.25
2023-05-12T08:21:16.055Z,100489.09
2023-05-12T08:24:18.932Z,100508.44
2023-05-12T08:27:21.531Z,100505.69
2023-05-12T08:30:24.454Z,100519.03
2023-05-12T08:33:27.870Z,100524.56
2023-05-12T08:36:30.804Z,100530.09
2023-05-12T08:39:34.025Z,100526.06
2023-05-12T08:42:44.175Z,100525.03
2023-05-12T08:45:47.524Z,100535.16
2023-05-12T08:48:54.860Z,100522.19
2023-05-12T08:51:59.893Z,100532.37
2023-05-12T08:55:05.095Z,100535.59
2023-05-12T08:58:09.656Z,100538.28
2023-05-12T09:01:14.769Z,100549.22
2023-05-12T09:04:18.144Z,100550.41
2023-05-12T09:07:24.595Z,100543.16
2023-05-12T09:13:38.484Z,100560.88
2023-05-12T09:16:44.325Z,100557.72
2023-05-12T09:19:48.807Z,100565.22
2023-05-12T09:22:51.383Z,100558.44
2023-05-12T09:26:04.069Z,100566.34
2023-05-12T09:29:08.489Z,100549.50
2023-05-12T09:32:11.860Z,100571.00
2023-05-12T09:35:14.689Z,100560.13
2023-05-12T09:38:17.612Z,100539.84
2023-05-12T09:41:24.039Z,100551.31
2023-05-12T09:44:29.448Z,100563.34
2023-05-12T09:47:36.690Z,100562.56
2023-05-12T09:50:50.594Z,100550.69
2023-05-12T09:53:53.506Z,100560.19
2023-05-12T09:57:01.525Z,100564.94
2023-05-12T10:00:06.079Z,100558.53
2023-05-12T10:03:17.628Z,100544.38
2023-05-12T10:06:42.460Z,100551.78
2023-05-12T10:09:48.467Z,100542.53
2023-05-12T10:12:51.757Z,100559.09
2023-05-12T10:15:57.768Z,100554.00
2023-05-12T10:19:00.788Z,100560.88
2023-05-12T10:22:05.836Z,100559.37
2023-05-12T10:25:09.063Z,100560.56
2023-05-12T10:28:12.817Z,100565.53
2023-05-12T10:31:16.161Z,100566.78
2023-05-12T10:34:19.152Z,100564.59
2023-05-12T10:37:23.421Z,100561.38
2023-05-12T10:40:26.878Z,100561.84
2023-05-12T10:43:38.600Z,100578.09
2023-05-12T10:46:43.425Z,100571.38
2023-05-12T10:49:48.397Z,100575.00
2023-05-12T10:52:55.780Z,100580.06
2023-05-12T10:56:03.308Z,100573.91
2023-05-12T10:59:11.891Z,100575.97
2023-05-12T11:02:20.167Z,100575.66
2023-05-12T11:05:34.673Z,100565.87
2023-05-12T11:08:37.966Z,100554.50
2023-05-12T11:11:41.254Z,100569.72
2023-05-12T11:14:45.470Z,100565.06
2023-05-12T11:17:48.429Z,100568.25
2023-05-12T11:20:51.541Z,100573.38
2023-05-12T11:23:55.305Z,100565.44
2023-05-12T11:26:58.385Z,100575.03
2023-05-12T11:30:02.913Z,100550.62
2023-05-12T11:33:06.008Z,100571.47
2023-05-12T11:36:09.845Z,100579.41
2023-05-12T11:39:17.204Z,100583.75
2023-05-12T11:42:21.586Z,100592.66
2023-05-12T11:45:28.735Z,100600.91
2023-05-12T11:48:35.689Z,100598.56
2023-05-12T11:51:42.775Z,100607.53
2023-05-12T11:54:48.601Z,100612.22
2023-05-12T11:57:59.644Z,100608.19
2023-05-12T12:01:11.946Z,100608.69
2023-05-12T12:04:14.990Z,100611.97
2023-05-12T12:07:32.125Z,100617.00
2023-05-12T12:10:35.985Z,100626.38
2023-05-12T12:13:38.595Z,100633.06
2023-05-12T12:16:41.488Z,100622.41
2023-05-12T12:19:44.110Z,100619.44
2023-05-12T12:22:47.057Z,100619.66
2023-05-12T12:25:49.689Z,100619.56
2023-05-12T12:28:52.640Z,100612.56
2023-05-12T12:31:56.111Z,100619.84
2023-05-12T12:35:01.367Z,100620.66
2023-05-12T12:38:04.673Z,100613.47
2023-05-12T12:41:07.914Z,100624.63
2023-05-12T12:44:10.503Z,100622.88
2023-05-12T12:47:13.683Z,100617.44
2023-05-12T12:50:16.479Z,100615.72
2023-05-12T12:53:19.397Z,100614.41
2023-05-12T12:56:24.350Z,100613.06
2023-05-12T12:59:28.440Z,100616.00
2023-05-12T13:02:31.296Z,100619.50
2023-05-12T13:05:34.521Z,100612.75
2023-05-12T13:08:37.096Z,100610.63
2023-05-12T13:11:40.041Z,100617.94
2023-05-12T13:14:42.645Z,100591.41
2023-05-12T13:17:48.634Z,100599.06
2023-05-12T13:20:51.695Z,100599.50
2023-05-12T13:23:54.604Z,100594.62
2023-05-12T13:26:57.640Z,100597.16
2023-05-12T13:30:00.572Z,100584.75
2023-05-12T13:33:05.727Z,100595.44
2023-05-12T13:36:09.067Z,100602.03
2023-05-12T13:39:12.808Z,100591.69
2023-05-12T13:42:15.790Z,100593.06
2023-05-12T13:45:19.649Z,100604.41
2023-05-12T13:48:22.886Z,100595.84
2023-05-12T13:51:26.167Z,100591.19
2023-05-12T13:54:29.191Z,100593.84
2023-05-12T13:57:31.811Z,100597.84
2023-05-12T14:00:34.878Z,100603.09
2023-05-12T14:03:37.945Z,100599.25
2023-05-12T14:06:40.607Z,100613.00
2023-05-12T14:09:43.485Z,100613.19
2023-05-12T14:12:46.746Z,100603.94
2023-05-12T14:15:50.299Z,100603.97
2023-05-12T14:18:53.420Z,100600.88
2023-05-12T14:21:56.278Z,100596.31
2023-05-12T14:24:59.004Z,100611.81
2023-05-12T14:28:02.213Z,100619.63
2023-05-12T14:31:05.230Z,100619.81
2023-05-12T14:34:09.355Z,100618.19
2023-05-12T14:37:12.590Z,100619.87
2023-05-12T14:40:15.594Z,100604.78
2023-05-12T14:43:18.587Z,100609.50
2023-05-12T14:46:21.743Z,100620.44
2023-05-12T14:49:24.610Z,100618.75
2023-05-12T14:52:27.626Z,100585.19
2023-05-12T14:55:30.504Z,100600.28
2023-05-12T14:58:33.674Z,100594.34
2023-05-12T15:01:36.642Z,100594.81
2023-05-12T15:04:39.646Z,100585.34
2023-05-12T15:07:42.316Z,100588.59
2023-05-12T15:10:45.235Z,100583.44
2023-05-12T15:13:48.146Z,100578.38
2023-05-12T15:16:51.074Z,100578.97
2023-05-12T15:19:54.114Z,100593.84
2023-05-12T15:22:57.135Z,100590.06
2023-05-12T15:26:06.933Z,100596.91
2023-05-12T15:29:18.300Z,100594.09
2023-05-12T15:32:21.320Z,100600.44
2023-05-12T15:35:24.475Z,100597.16
2023-05-12T15:38:27.334Z,100603.56
2023-05-12T15:41:33.337Z,100614.13
2023-05-12T15:44:36.211Z,100601.62
2023-05-12T15:47:39.411Z,100596.78
2023-05-12T15:50:42.214Z,100600.69
2023-05-12T15:53:45.784Z,100603.03
2023-05-12T15:56:49.855Z,100614.47
2023-05-12T15:59:59.775Z,100611.91
2023-05-12T16:03:02.777Z,100581.25
2023-05-12T16:06:07.089Z,100601.81
2023-05-12T16:09:11.181Z,100607.28
2023-05-12T16:12:15.367Z,100610.44
2023-05-12T16:15:18.203Z,100616.75
2023-05-12T16:18:21.350Z,100615.16
2023-05-12T16:21:23.978Z,100626.06
2023-05-12T16:24:28.747Z,100622.94
2023-05-12T16:27:33.652Z,100630.91
2023-05-12T16:30:37.124Z,100637.84
2023-05-12T16:33:39.769Z,100638.25
2023-05-12T16:36:42.738Z,100639.81
2023-05-12T16:39:45.437Z,100633.94
2023-05-12T16:42:48.441Z,100627.63
2023-05-12T16:46:01.412Z,100634.75
2023-05-12T16:49:04.318Z,100642.25
2023-05-12T16:52:07.139Z,100641.94
2023-05-12T16:55:10.470Z,100613.25
2023-05-12T16:58:13.106Z,100638.69
2023-05-12T17:01:16.166Z,100649.72
2023-05-12T17:04:18.813Z,100651.22
2023-05-12T17:07:21.701Z,100646.09
2023-05-12T17:10:24.308Z,100635.06
2023-05-12T17:13:27.236Z,100646.25
2023-05-12T17:16:29.983Z,100654.72
2023-05-12T17:19:33.559Z,100638.00
2023-05-12T17:22:41.397Z,100652.91
2023-05-12T17:25:44.502Z,100656.28
2023-05-12T17:28:47.111Z,100655.53
2023-05-12T17:31:50.179Z,100664.22
2023-05-12T17:34:52.936Z,100651.41
2023-05-12T17:37:55.990Z,100665.50
2023-05-12T17:40:58.711Z,100668.00
2023-05-12T17:44:01.627Z,100676.09
2023-05-12T17:47:04.980Z,100669.78
2023-05-12T17:50:14.005Z,100679.00
2023-05-12T17:53:16.573Z,100675.69
2023-05-12T17:56:19.520Z,100656.59
2023-05-12T17:59:22.553Z,100674.94
2023-05-12T18:02:25.725Z,100660.66
2023-05-12T18:05:28.785Z,100686.19
2023-05-12T18:08:31.785Z,100685.44
2023-05-12T18:11:34.898Z,100690.56
2023-05-12T18:14:37.672Z,100698.34
2023-05-12T18:17:41.022Z,100703.38
2023-05-12T18:20:44.071Z,100704.91
2023-05-12T18:23:47.105Z,100704.81
2023-05-12T18:26:49.662Z,100707.53
2023-05-12T18:29:52.771Z,100715.53
2023-05-12T18:32:55.540Z,100712.88
2023-05-12T18:35:58.559Z,100711.56
2023-05-12T18:39:01.319Z,100714.03
2023-05-12T18:42:04.568Z,100715.63
2023-05-12T18:45:08.074Z,100722.19
2023-05-12T18:48:11.418Z,100724.00
2023-05-12T18:51:14.061Z,100715.03
2023-05-12T18:54:17.040Z,100719.66
2023-05-12T18:57:19.804Z,100724.00
2023-05-12T19:00:26.057Z,100715.75
2023-05-12T19:03:28.741Z,100727.28
2023-05-12T19:06:32.239Z,100724.34
2023-05-12T19:09:35.877Z,100718.09
2023-05-12T19:12:38.906Z,100730.34
2023-05-12T19:15:41.643Z,100725.31
2023-05-12T19:18:44.882Z,100734.31
2023-05-12T19:21:47.520Z,100711.19
2023-05-12T19:24:51.046Z,100733.66
2023-05-12T19:27:53.660Z,100739.06
2023-05-12T19:30:56.659Z,100729.97
2023-05-12T19:33:59.598Z,100740.69
2023-05-12T19:37:03.213Z,100750.00
2023-05-12T19:40:06.625Z,100754.50
2023-05-12T19:43:10.721Z,100756.09
2023-05-12T19:46:13.479Z,100762.41
2023-05-12T19:49:16.554Z,100743.47
2023-05-12T19:52:25.739Z,100774.78
2023-05-12T19:55:29.207Z,100775.28
2023-05-12T19:58:31.791Z,100755.16
2023-05-12T20:01:34.750Z,100773.19
2023-05-12T20:04:37.768Z,100780.97
2023-05-12T20:07:40.564Z,100771.78
2023-05-12T20:10:43.705Z,100771.94
2023-05-12T20:13:46.364Z,100749.31
2023-05-12T20:16:49.396Z,100770.78
2023-05-12T20:19:52.037Z,100758.69
2023-05-12T20:22:55.016Z,100774.19
2023-05-12T20:25:57.871Z,100770.97
2023-05-12T20:29:01.086Z,100777.34
2023-05-12T20:32:03.770Z,100767.28
2023-05-12T20:35:07.163Z,100771.63
2023-05-12T20:38:09.789Z,100768.19
2023-05-12T20:41:13.840Z,100765.94
2023-05-12T20:44:16.689Z,100767.50
2023-05-12T20:47:19.898Z,100761.19
2023-05-12T20:50:23.837Z,100766.19
2023-05-12T20:53:26.780Z,100757.00
2023-05-12T20:56:29.419Z,100742.41
2023-05-12T20:59:32.308Z,100760.97
2023-05-12T21:02:34.936Z,100755.16
2023-05-12T21:05:39.266Z,100760.22
2023-05-12T21:08:41.837Z,100759.03
2023-05-12T21:11:44.842Z,100757.03
2023-05-12T21:14:47.522Z,100765.59
2023-05-12T21:17:50.450Z,100759.94
2023-05-12T21:20:53.130Z,100765.38
2023-05-12T21:23:56.082Z,100762.19
2023-05-12T21:27:02.032Z,100764.59
2023-05-12T21:30:05.622Z,100763.91
2023-05-12T21:33:08.308Z,100750.50
2023-05-12T21:36:11.419Z,100762.63
2023-05-12T21:39:14.113Z,100760.16
2023-05-12T21:42:17.000Z,100768.00
2023-05-12T21:45:21.578Z,100760.62
2023-05-12T21:48:24.926Z,100764.03
2023-05-12T21:51:28.882Z,100765.31
2023-05-12T21:54:33.770Z,100763.50
2023-05-12T21:57:36.344Z,100761.12
2023-05-12T22:00:39.852Z,100765.19
2023-05-12T22:03:42.851Z,100775.13
2023-05-12T22:06:45.562Z,100765.16
2023-05-12T22:09:48.546Z,100773.06
2023-05-12T22:12:51.670Z,100772.69
2023-05-12T22:15:54.686Z,100770.13
2023-05-12T22:18:57.708Z,100777.34
2023-05-12T22:22:00.742Z,100778.97
2023-05-12T22:25:04.844Z,100772.75
2023-05-12T22:28:07.781Z,100775.19
2023-05-12T22:31:10.484Z,100768.31
2023-05-12T22:34:13.362Z,100767.09
2023-05-12T22:37:15.966Z,100747.94
2023-05-12T22:40:21.485Z,100771.38
2023-05-12T22:43:24.353Z,100762.81
2023-05-12T22:46:27.368Z,100768.41
2023-05-12T22:49:30.074Z,100764.47
2023-05-12T22:52:32.941Z,100756.22
2023-05-12T22:55:35.528Z,100754.94
2023-05-12T22:58:38.355Z,100752.44
2023-05-12T23:01:41.031Z,100757.78
2023-05-12T23:04:44.107Z,100753.03
2023-05-12T23:07:46.917Z,100749.94
2023-05-12T23:10:49.765Z,100752.25
2023-05-12T23:13:52.445Z,100750.59
2023-05-12T23:16:55.434Z,100744.12
2023-05-12T23:19:58.212Z,100744.12
2023-05-12T23:23:01.148Z,100724.69
2023-05-12T23:26:03.836Z,100739.53
2023-05-12T23:29:06.700Z,100739.84
2023-05-12T23:32:09.406Z,100741.38
2023-05-12T23:35:12.424Z,100726.16
2023-05-12T23:38:15.110Z,100715.66
2023-05-12T23:41:17.975Z,100744.50
2023-05-12T23:44:20.676Z,100744.22
2023-05-12T23:47:23.589Z,100739.31
2023-05-12T23:50:26.474Z,100745.94
2023-05-12T23:53:29.416Z,100711.84
2023-05-12T23:56:32.001Z,100740.09
2023-05-12T23:59:34.907Z,100741.47
